Terminal Aerodrome Forecast
Issued by NWS

Home | Current Version | Previous Version | Text Only | Print | Product List | Glossary Off
Versions: 1 2 3 4 5 6 7 8 9 10 11 12 13 14 15

000
FTUS43 KABR 180500
TAFATY
TAF
KATY 180526Z 1806/1906 20005KT P6SM SCT100
      TEMPO 1808/1812 5SM BR
     FM181700 30014G23KT P6SM VCSH BKN035
     FM190200 32010KT P6SM SKC=

USA.gov is the U.S. government's official web portal to all federal, state and local government web resources and services.